CheckWX is a tool to help pilots better visualize weather data.  It is not intended as a substitute for an official pre-flight weather briefing.

15:51:32 UTC

KMNZ METAR
Hamilton Municipal Airport
Hamilton, Texas, USA
Current

17 mins ago

KMNZ 261535Z AUTO 19015G23KT 10SM BKN027 OVC034 26/19 A3010 RMK AO2 T02610190
Observed
May-26 @ 15:35 UTC
Wind
  • 190° at 15 KTS
  • Gusting to 23 KTS
Visibility
10 SM
Flight Rules
MVFR
Cloud Levels
  • Broken at 2,700' AGL
  • Overcast at 3,400' AGL
Temperature
26°C / 79°F
Dewpoint
19°C / 66°F
Humidity
65%
Altimeter
30.1" Hg
Pressure
1019.32 hPa
Previous

37 mins ago

KMNZ 261515Z AUTO 17015G20KT 10SM BKN025 OVC033 27/20 A3008 RMK AO2 T02650196
Observed
May-26 @ 15:15 UTC
Wind
  • 170° at 15 KTS
  • Gusting to 20 KTS
Visibility
10 SM
Flight Rules
MVFR
Cloud Levels
  • Broken at 2,500' AGL
  • Overcast at 3,300' AGL
Temperature
27°C / 81°F
Dewpoint
20°C / 68°F
Heat Index
29°C / 84°F
Humidity
66%
Altimeter
30.08" Hg
Pressure
1018.62 hPa
Previous

57 mins ago

KMNZ 261455Z AUTO 18014G19KT 10SM SCT014 BKN024 OVC034 25/21 A3008 RMK AO2 T02520210
Observed
May-26 @ 14:55 UTC
Wind
  • 180° at 14 KTS
  • Gusting to 19 KTS
Visibility
10 SM
Flight Rules
MVFR
Cloud Levels
  • Scattered at 1,400' AGL
  • Broken at 2,400' AGL
  • Overcast at 3,400' AGL
Temperature
25°C / 77°F
Dewpoint
21°C / 70°F
Humidity
79%
Altimeter
30.08" Hg
Pressure
1018.62 hPa